createdAt,value
2023-01-21T00:01:38.724Z,25.50
2023-01-21T00:04:05.897Z,25.50
2023-01-21T00:06:32.982Z,31.70
2023-01-21T00:09:00.196Z,26.40
2023-01-21T00:11:27.375Z,25.67
2023-01-21T00:13:54.607Z,22.80
2023-01-21T00:16:21.779Z,25.63
2023-01-21T00:18:49.055Z,25.77
2023-01-21T00:21:16.679Z,21.27
2023-01-21T00:23:45.718Z,25.77
2023-01-21T00:26:13.410Z,23.80
2023-01-21T00:28:45.033Z,23.87
2023-01-21T00:31:13.131Z,25.07
2023-01-21T00:33:40.546Z,23.30
2023-01-21T00:36:14.075Z,29.93
2023-01-21T00:38:41.303Z,27.47
2023-01-21T00:41:13.456Z,24.07
2023-01-21T00:43:44.182Z,26.07
2023-01-21T00:46:12.001Z,27.33
2023-01-21T00:48:40.462Z,25.60
2023-01-21T00:51:08.439Z,26.57
2023-01-21T00:53:38.353Z,24.37
2023-01-21T00:56:08.973Z,25.90
2023-01-21T00:58:36.675Z,24.03
2023-01-21T01:01:13.875Z,25.07
2023-01-21T01:03:41.776Z,23.67
2023-01-21T01:06:17.432Z,26.23
2023-01-21T01:08:45.710Z,22.93
2023-01-21T01:11:14.405Z,25.93
2023-01-21T01:13:41.705Z,24.50
2023-01-21T01:16:11.101Z,24.23
2023-01-21T01:18:38.303Z,25.53
2023-01-21T01:21:06.717Z,24.77
2023-01-21T01:23:33.934Z,23.73
2023-01-21T01:26:05.798Z,23.30
2023-01-21T01:28:34.107Z,21.60
2023-01-21T01:31:05.691Z,24.07
2023-01-21T01:33:33.548Z,23.63
2023-01-21T01:36:24.893Z,20.50
2023-01-21T01:38:53.832Z,21.87
2023-01-21T01:41:25.394Z,23.80
2023-01-21T01:44:42.391Z,23.23
2023-01-21T01:47:09.594Z,20.67
2023-01-21T01:49:37.301Z,22.80
2023-01-21T01:52:08.482Z,21.77
2023-01-21T01:54:49.851Z,22.60
2023-01-21T01:57:21.562Z,25.43
2023-01-21T01:59:49.713Z,23.43
2023-01-21T02:02:19.922Z,24.43
2023-01-21T02:05:02.443Z,22.03
2023-01-21T02:07:33.149Z,25.13
2023-01-21T02:10:00.487Z,25.17
2023-01-21T02:12:27.791Z,23.33
2023-01-21T02:14:55.091Z,25.10
2023-01-21T02:18:18.096Z,24.80
2023-01-21T02:21:04.286Z,27.23
2023-01-21T02:23:59.152Z,24.43
2023-01-21T02:27:31.477Z,21.43
2023-01-21T02:30:29.688Z,19.83
2023-01-21T02:33:33.316Z,21.60
2023-01-21T02:36:31.674Z,20.53
2023-01-21T02:39:09.646Z,24.63
2023-01-21T02:42:06.372Z,20.20
2023-01-21T02:44:50.885Z,23.03
2023-01-21T02:47:34.602Z,22.57
2023-01-21T02:50:13.836Z,23.70
2023-01-21T02:52:41.088Z,21.50
2023-01-21T02:55:16.840Z,23.33
2023-01-21T02:57:50.958Z,19.03
2023-01-21T03:00:39.828Z,22.00
2023-01-21T03:03:34.497Z,24.90
2023-01-21T03:06:30.323Z,23.87
2023-01-21T03:09:21.619Z,26.27
2023-01-21T03:12:41.019Z,26.93
2023-01-21T03:15:50.770Z,22.50
2023-01-21T03:18:34.357Z,26.17
2023-01-21T03:21:17.953Z,26.63
2023-01-21T03:23:49.056Z,25.53
2023-01-21T03:26:22.653Z,23.73
2023-01-21T03:28:54.593Z,23.70
2023-01-21T03:31:29.046Z,24.90
2023-01-21T03:34:00.209Z,22.57
2023-01-21T03:36:38.889Z,23.47
2023-01-21T03:39:55.119Z,24.97
2023-01-21T03:42:22.838Z,23.37
2023-01-21T03:44:50.075Z,22.70
2023-01-21T03:47:22.845Z,23.17
2023-01-21T03:50:02.233Z,26.13
2023-01-21T03:52:29.711Z,21.17
2023-01-21T03:54:56.780Z,22.60
2023-01-21T03:57:23.888Z,26.40
2023-01-21T03:59:51.089Z,24.17
2023-01-21T04:02:20.392Z,24.47
2023-01-21T04:04:48.188Z,22.10
2023-01-21T04:07:16.534Z,23.13
2023-01-21T04:09:43.994Z,27.13
2023-01-21T04:12:12.033Z,25.27
2023-01-21T04:14:39.355Z,24.53
2023-01-21T04:17:06.885Z,22.37
2023-01-21T04:19:34.473Z,22.80
2023-01-21T04:22:01.802Z,23.63
2023-01-21T04:24:29.240Z,24.13
2023-01-21T04:26:56.391Z,23.13
2023-01-21T04:29:23.864Z,25.00
2023-01-21T04:31:51.256Z,24.47
2023-01-21T04:34:18.664Z,25.33
2023-01-21T04:36:46.727Z,26.07
2023-01-21T04:39:14.096Z,23.97
2023-01-21T04:41:41.353Z,23.93
2023-01-21T04:44:08.587Z,25.00
2023-01-21T04:46:35.847Z,23.30
2023-01-21T04:49:03.316Z,23.67
2023-01-21T04:51:30.511Z,26.13
2023-01-21T04:53:57.746Z,23.00
2023-01-21T04:56:25.054Z,25.33
2023-01-21T04:58:52.368Z,23.87
2023-01-21T05:01:19.777Z,27.07
2023-01-21T05:03:47.159Z,26.40
2023-01-21T05:06:14.381Z,24.07
2023-01-21T05:08:41.763Z,24.87
2023-01-21T05:11:09.715Z,24.13
2023-01-21T05:13:37.158Z,22.80
2023-01-21T05:16:08.449Z,20.57
2023-01-21T05:18:39.609Z,21.87
2023-01-21T05:21:07.481Z,23.90
2023-01-21T05:23:35.014Z,24.87
2023-01-21T05:26:02.500Z,20.10
2023-01-21T05:28:29.797Z,22.80
2023-01-21T05:31:04.214Z,23.00
2023-01-21T05:33:34.132Z,27.17
2023-01-21T05:36:03.747Z,24.07
2023-01-21T05:38:30.964Z,23.10
2023-01-21T05:41:00.861Z,26.37
2023-01-21T05:43:28.884Z,22.53
2023-01-21T05:45:56.548Z,25.03
2023-01-21T05:48:24.232Z,30.63
2023-01-21T05:50:51.712Z,24.23
2023-01-21T05:53:19.060Z,25.27
2023-01-21T05:55:46.621Z,25.80
2023-01-21T05:58:13.791Z,24.07
2023-01-21T06:00:42.059Z,24.13
2023-01-21T06:03:09.455Z,28.33
2023-01-21T06:05:36.762Z,22.30
2023-01-21T06:08:04.389Z,24.87
2023-01-21T06:10:31.656Z,27.37
2023-01-21T06:12:58.814Z,25.00
2023-01-21T06:15:26.248Z,23.63
2023-01-21T06:17:53.953Z,31.43
2023-01-21T06:20:21.931Z,25.67
2023-01-21T06:22:49.362Z,24.10
2023-01-21T06:25:16.629Z,25.07
2023-01-21T06:27:43.762Z,26.60
2023-01-21T06:30:11.713Z,25.13
2023-01-21T06:32:39.054Z,22.87
2023-01-21T06:35:06.882Z,25.70
2023-01-21T06:37:34.089Z,24.67
2023-01-21T06:40:01.299Z,24.63
2023-01-21T06:42:28.483Z,24.63
2023-01-21T06:44:55.808Z,31.83
2023-01-21T06:47:23.148Z,23.83
2023-01-21T06:49:50.344Z,24.83
2023-01-21T06:52:17.718Z,27.73
2023-01-21T06:54:44.914Z,24.53
2023-01-21T06:57:12.409Z,25.53
2023-01-21T06:59:39.760Z,25.43
2023-01-21T07:02:07.719Z,24.97
2023-01-21T07:04:34.914Z,24.33
2023-01-21T07:07:02.177Z,26.93
2023-01-21T07:09:29.431Z,25.97
2023-01-21T07:11:56.684Z,31.20
2023-01-21T07:14:23.824Z,29.33
2023-01-21T07:16:51.201Z,27.93
2023-01-21T07:19:18.927Z,27.63
2023-01-21T07:21:46.277Z,27.80
2023-01-21T07:24:13.737Z,24.87
2023-01-21T07:26:41.651Z,30.27
2023-01-21T07:29:09.257Z,25.27
2023-01-21T07:31:36.536Z,28.00
2023-01-21T07:34:04.045Z,32.10
2023-01-21T07:36:31.522Z,30.03
2023-01-21T07:38:58.817Z,26.23
2023-01-21T07:41:26.039Z,26.27
2023-01-21T07:43:53.474Z,26.83
2023-01-21T07:46:22.924Z,25.70
2023-01-21T07:48:51.864Z,27.60
2023-01-21T07:51:20.343Z,26.67
2023-01-21T07:53:48.268Z,26.43
2023-01-21T07:56:18.097Z,30.63
2023-01-21T07:58:47.053Z,27.87
2023-01-21T08:01:14.459Z,28.60
2023-01-21T08:03:41.871Z,28.87
2023-01-21T08:06:09.222Z,27.77
2023-01-21T08:08:36.433Z,29.07
2023-01-21T08:11:03.732Z,31.40
2023-01-21T08:13:30.956Z,31.87
2023-01-21T08:15:58.613Z,29.90
2023-01-21T08:18:26.110Z,29.80
2023-01-21T08:20:59.115Z,29.27
2023-01-21T08:23:27.375Z,28.77
2023-01-21T08:25:54.983Z,32.77
2023-01-21T08:28:23.064Z,27.23
2023-01-21T08:30:50.327Z,27.30
2023-01-21T08:33:17.492Z,29.53
2023-01-21T08:35:44.828Z,27.50
2023-01-21T08:38:12.077Z,27.97
2023-01-21T08:40:39.630Z,28.93
2023-01-21T08:43:09.174Z,25.53
2023-01-21T08:45:36.758Z,24.57
2023-01-21T08:48:04.322Z,24.03
2023-01-21T08:50:31.843Z,25.17
2023-01-21T08:52:59.094Z,23.40
2023-01-21T08:55:27.131Z,23.10
2023-01-21T08:57:55.880Z,19.23
2023-01-21T09:00:24.521Z,20.20
2023-01-21T09:02:51.967Z,19.27
2023-01-21T09:05:20.102Z,16.17
2023-01-21T09:07:47.304Z,15.97
2023-01-21T09:10:35.519Z,11.50
2023-01-21T09:13:10.556Z,10.90
2023-01-21T09:15:42.537Z,12.63
2023-01-21T09:18:12.576Z,11.70
2023-01-21T09:20:40.432Z,11.33
2023-01-21T09:23:28.030Z,8.60
2023-01-21T09:26:16.357Z,11.07
2023-01-21T09:28:47.394Z,9.67
2023-01-21T09:31:18.298Z,9.37
2023-01-21T09:33:49.014Z,9.53
2023-01-21T09:36:20.409Z,7.73
2023-01-21T09:38:49.338Z,7.87
2023-01-21T09:41:48.522Z,7.63
2023-01-21T09:44:32.182Z,7.13
2023-01-21T09:47:29.700Z,6.90
2023-01-21T09:50:14.204Z,7.30
2023-01-21T09:52:52.077Z,7.40
2023-01-21T09:55:26.357Z,6.53
2023-01-21T09:58:25.491Z,7.73
2023-01-21T10:00:56.672Z,8.00
2023-01-21T10:03:24.711Z,8.30
2023-01-21T10:06:01.164Z,6.67
2023-01-21T10:08:51.604Z,7.00
2023-01-21T10:11:50.040Z,8.57
2023-01-21T10:14:39.771Z,7.70
2023-01-21T10:17:58.741Z,8.93
2023-01-21T10:20:46.282Z,7.20
2023-01-21T10:23:22.964Z,9.97
2023-01-21T10:25:51.146Z,8.57
2023-01-21T10:28:26.086Z,8.70
2023-01-21T10:30:58.882Z,7.67
2023-01-21T10:33:29.182Z,8.00
2023-01-21T10:36:38.705Z,5.43
2023-01-21T10:39:47.702Z,6.33
2023-01-21T10:43:06.050Z,4.73
2023-01-21T10:46:25.596Z,4.30
2023-01-21T10:49:18.540Z,3.17
2023-01-21T10:52:01.179Z,3.00
2023-01-21T10:54:47.471Z,3.47
2023-01-21T10:57:18.169Z,4.37
2023-01-21T10:59:46.939Z,3.87
2023-01-21T11:02:35.368Z,4.80
2023-01-21T11:05:06.392Z,5.30
2023-01-21T11:07:40.707Z,3.70
2023-01-21T11:10:09.771Z,5.33
2023-01-21T11:12:37.464Z,3.40
2023-01-21T11:15:16.528Z,4.63
2023-01-21T11:17:53.930Z,4.10
2023-01-21T11:20:42.311Z,5.27
2023-01-21T11:23:39.409Z,5.00
2023-01-21T11:26:17.898Z,55.03
2023-01-21T11:28:46.488Z,4.20
2023-01-21T11:31:22.852Z,3.20
2023-01-21T11:33:51.597Z,4.07
2023-01-21T11:36:21.488Z,3.40
2023-01-21T11:39:02.409Z,5.17
2023-01-21T11:41:30.557Z,4.00
2023-01-21T11:44:22.070Z,4.17
2023-01-21T11:46:51.725Z,7.83
2023-01-21T11:49:33.150Z,5.70
2023-01-21T11:52:16.728Z,4.90
2023-01-21T11:54:48.073Z,4.77
2023-01-21T11:57:35.399Z,6.00
2023-01-21T12:00:25.404Z,5.97
2023-01-21T12:03:06.121Z,4.30
2023-01-21T12:05:43.182Z,4.80
2023-01-21T12:08:40.367Z,5.77
2023-01-21T12:11:08.756Z,5.50
2023-01-21T12:14:17.502Z,5.57
2023-01-21T12:16:55.079Z,4.07
2023-01-21T12:19:41.066Z,8.97
2023-01-21T12:22:28.414Z,6.37
2023-01-21T12:25:46.402Z,4.90
2023-01-21T12:28:28.780Z,3.80
2023-01-21T12:31:30.937Z,5.83
2023-01-21T12:34:33.180Z,166.83
2023-01-21T12:37:20.420Z,9.60
2023-01-21T12:39:50.809Z,8.07
2023-01-21T12:42:41.329Z,5.00
2023-01-21T12:45:47.830Z,6.60
2023-01-21T12:48:39.349Z,6.80
2023-01-21T12:51:19.333Z,6.17
2023-01-21T12:54:24.808Z,6.73
2023-01-21T12:57:18.717Z,5.97
2023-01-21T12:59:54.903Z,5.63
2023-01-21T13:03:40.978Z,4.77
2023-01-21T13:06:52.702Z,5.80
2023-01-21T13:09:48.479Z,6.27
2023-01-21T13:12:21.935Z,6.77
2023-01-21T13:15:03.973Z,6.10
2023-01-21T13:17:35.734Z,4.60
2023-01-21T13:20:20.231Z,5.40
2023-01-21T13:23:09.328Z,5.37
2023-01-21T13:25:56.054Z,4.90
2023-01-21T13:28:44.440Z,4.30
2023-01-21T13:31:47.249Z,6.10
2023-01-21T13:34:20.852Z,6.93
2023-01-21T13:36:54.380Z,5.00
2023-01-21T13:39:52.248Z,4.70
2023-01-21T13:42:54.900Z,5.37
2023-01-21T13:45:36.993Z,7.03
2023-01-21T13:48:15.316Z,3.50
2023-01-21T13:51:20.308Z,6.93
2023-01-21T13:54:15.713Z,7.00
2023-01-21T13:57:27.085Z,5.53
2023-01-21T13:59:59.159Z,4.33
2023-01-21T14:03:17.516Z,5.27
2023-01-21T14:05:51.617Z,7.33
2023-01-21T14:08:53.657Z,4.60
2023-01-21T14:11:47.104Z,4.27
2023-01-21T14:14:47.209Z,7.60
2023-01-21T14:18:06.130Z,5.13
2023-01-21T14:21:03.038Z,4.67
2023-01-21T14:24:19.632Z,5.80
2023-01-21T14:27:57.691Z,5.07
2023-01-21T14:30:43.898Z,5.43
2023-01-21T14:33:24.918Z,5.27
2023-01-21T14:36:14.100Z,5.97
2023-01-21T14:39:15.184Z,4.73
2023-01-21T14:42:06.856Z,5.40
2023-01-21T14:44:50.185Z,5.50
2023-01-21T14:47:42.625Z,4.60
2023-01-21T14:50:10.430Z,3.80
2023-01-21T14:52:45.367Z,4.73
2023-01-21T14:55:31.158Z,4.57
2023-01-21T14:58:01.895Z,4.97
2023-01-21T15:00:37.350Z,6.60
2023-01-21T15:03:19.395Z,7.10
2023-01-21T15:05:52.475Z,4.33
2023-01-21T15:08:45.642Z,8.93
2023-01-21T15:11:30.557Z,5.33
2023-01-21T15:14:11.113Z,4.40
2023-01-21T15:16:44.492Z,4.03
2023-01-21T15:19:12.443Z,3.80
2023-01-21T15:21:43.765Z,5.13
2023-01-21T15:24:24.586Z,4.17
2023-01-21T15:27:23.654Z,5.23
2023-01-21T15:29:54.367Z,3.50
2023-01-21T15:33:02.029Z,5.70
2023-01-21T15:35:40.577Z,5.97
2023-01-21T15:38:15.113Z,6.60
2023-01-21T15:40:47.180Z,3.70
2023-01-21T15:43:31.528Z,5.40
2023-01-21T15:46:30.368Z,8.00
2023-01-21T15:49:46.909Z,7.10
2023-01-21T15:52:51.449Z,4.70
2023-01-21T15:55:39.800Z,4.60
2023-01-21T15:59:09.231Z,4.67
2023-01-21T16:01:41.206Z,3.97
2023-01-21T16:04:37.986Z,4.77
2023-01-21T16:07:50.076Z,6.03
2023-01-21T16:10:26.650Z,6.60
2023-01-21T16:13:18.026Z,3.63
2023-01-21T16:16:24.635Z,4.70
2023-01-21T16:19:15.231Z,6.53
2023-01-21T16:21:47.295Z,5.87
2023-01-21T16:24:24.202Z,4.67
2023-01-21T16:26:51.817Z,4.03
2023-01-21T16:29:19.600Z,3.87
2023-01-21T16:31:59.993Z,3.40
2023-01-21T16:34:40.910Z,3.53
2023-01-21T16:37:16.225Z,3.80
2023-01-21T16:39:45.016Z,3.10
2023-01-21T16:42:37.436Z,4.13
2023-01-21T16:45:09.705Z,4.83
2023-01-21T16:47:37.582Z,4.53
2023-01-21T16:50:05.873Z,4.73
2023-01-21T16:52:33.510Z,7.13
2023-01-21T16:55:01.087Z,4.57
2023-01-21T16:57:32.265Z,5.33
2023-01-21T17:00:02.481Z,4.90
2023-01-21T17:02:33.606Z,5.23
2023-01-21T17:05:05.150Z,5.70
2023-01-21T17:07:42.893Z,4.13
2023-01-21T17:10:29.307Z,4.23
2023-01-21T17:13:02.388Z,4.60
2023-01-21T17:15:42.815Z,6.20
2023-01-21T17:18:24.799Z,6.73
2023-01-21T17:21:17.296Z,7.50
2023-01-21T17:23:54.875Z,3.83
2023-01-21T17:26:31.588Z,3.53
2023-01-21T17:29:19.905Z,3.77
2023-01-21T17:32:00.179Z,3.80
2023-01-21T17:34:38.074Z,6.47
2023-01-21T17:37:51.188Z,2.50
2023-01-21T17:40:36.322Z,3.40
2023-01-21T17:43:24.308Z,3.53
2023-01-21T17:45:55.721Z,5.03
2023-01-21T17:48:31.840Z,3.30
2023-01-21T17:51:28.804Z,5.07
2023-01-21T17:54:06.428Z,3.87
2023-01-21T17:56:38.726Z,2.80
2023-01-21T17:59:34.401Z,6.10
2023-01-21T18:02:13.346Z,3.90
2023-01-21T18:04:43.421Z,6.50
2023-01-21T18:07:32.233Z,4.47
2023-01-21T18:10:02.727Z,3.37
2023-01-21T18:12:30.366Z,3.67
2023-01-21T18:14:58.530Z,4.87
2023-01-21T18:17:26.116Z,5.30
2023-01-21T18:19:53.815Z,5.53
2023-01-21T18:22:31.909Z,3.20
2023-01-21T18:25:01.461Z,3.63
2023-01-21T18:27:29.076Z,5.40
2023-01-21T18:29:58.003Z,4.03
2023-01-21T18:32:25.236Z,4.67
2023-01-21T18:34:52.634Z,3.63
2023-01-21T18:37:20.568Z,3.83
2023-01-21T18:39:47.879Z,6.20
2023-01-21T18:42:17.918Z,3.50
2023-01-21T18:44:45.740Z,8.83
2023-01-21T18:47:16.042Z,4.20
2023-01-21T18:49:44.693Z,6.90
2023-01-21T18:52:19.039Z,2.83
2023-01-21T18:54:46.508Z,4.87
2023-01-21T18:57:20.643Z,5.97
2023-01-21T18:59:48.267Z,4.83
2023-01-21T19:02:20.964Z,3.60
2023-01-21T19:04:48.648Z,4.30
2023-01-21T19:07:22.413Z,3.03
2023-01-21T19:09:51.268Z,4.93
2023-01-21T19:12:24.405Z,2.53
2023-01-21T19:14:51.736Z,2.77
2023-01-21T19:17:33.294Z,2.73
2023-01-21T19:20:00.903Z,2.80
2023-01-21T19:22:28.349Z,2.63
2023-01-21T19:24:55.789Z,3.30
2023-01-21T19:27:31.532Z,3.57
2023-01-21T19:29:58.869Z,4.30
2023-01-21T19:32:26.372Z,2.40
2023-01-21T19:34:55.803Z,6.50
2023-01-21T19:37:24.771Z,6.10
2023-01-21T19:39:52.329Z,3.23
2023-01-21T19:42:19.590Z,3.87
2023-01-21T19:44:46.859Z,3.57
2023-01-21T19:47:29.080Z,2.33
2023-01-21T19:49:56.745Z,3.73
2023-01-21T19:52:24.204Z,4.33
2023-01-21T19:54:53.968Z,4.37
2023-01-21T19:57:22.365Z,4.37
2023-01-21T19:59:52.011Z,5.57
2023-01-21T20:02:19.358Z,3.60
2023-01-21T20:04:46.728Z,3.07
2023-01-21T20:07:15.393Z,5.90
2023-01-21T20:09:42.802Z,4.03
2023-01-21T20:12:12.473Z,4.33
2023-01-21T20:14:39.699Z,4.90
2023-01-21T20:17:11.650Z,5.10
2023-01-21T20:19:39.092Z,4.70
2023-01-21T20:22:07.789Z,4.87
2023-01-21T20:24:35.054Z,4.70
2023-01-21T20:27:05.271Z,3.57
2023-01-21T20:29:34.103Z,3.03
2023-01-21T20:32:01.993Z,6.57
2023-01-21T20:34:31.454Z,3.20
2023-01-21T20:36:59.383Z,5.03
2023-01-21T20:39:26.810Z,4.77
2023-01-21T20:41:54.321Z,3.77
2023-01-21T20:44:21.914Z,6.43
2023-01-21T20:46:49.295Z,5.00
2023-01-21T20:49:16.840Z,3.73
2023-01-21T20:51:44.365Z,4.20
2023-01-21T20:54:12.414Z,5.07
2023-01-21T20:56:39.794Z,4.53
2023-01-21T20:59:09.826Z,3.17
2023-01-21T21:01:39.507Z,3.83
2023-01-21T21:04:06.960Z,4.13
2023-01-21T21:06:34.324Z,5.40
2023-01-21T21:09:02.608Z,3.50
2023-01-21T21:11:30.231Z,6.03
2023-01-21T21:13:58.621Z,5.03
2023-01-21T21:16:32.211Z,4.30
2023-01-21T21:19:00.719Z,8.20
2023-01-21T21:21:28.274Z,3.80
2023-01-21T21:23:55.704Z,4.10
2023-01-21T21:26:26.886Z,5.63
2023-01-21T21:28:55.347Z,3.90
2023-01-21T21:31:24.335Z,9.83
2023-01-21T21:33:52.042Z,7.50
2023-01-21T21:36:22.428Z,4.83
2023-01-21T21:38:52.197Z,11.23
2023-01-21T21:41:41.114Z,5.47
2023-01-21T21:44:09.782Z,5.93
2023-01-21T21:46:57.020Z,7.10
2023-01-21T21:49:24.606Z,6.60
2023-01-21T21:51:52.364Z,5.13
2023-01-21T21:54:19.879Z,5.27
2023-01-21T21:56:48.512Z,4.80
2023-01-21T21:59:16.174Z,6.20
2023-01-21T22:01:44.385Z,6.07
2023-01-21T22:04:12.145Z,7.20
2023-01-21T22:06:39.859Z,9.00
2023-01-21T22:09:07.804Z,3.57
2023-01-21T22:11:35.355Z,6.47
2023-01-21T22:14:04.109Z,7.27
2023-01-21T22:16:32.977Z,4.50
2023-01-21T22:19:01.508Z,5.37
2023-01-21T22:21:32.986Z,7.97
2023-01-21T22:24:03.549Z,5.73
2023-01-21T22:26:31.428Z,6.67
2023-01-21T22:28:58.826Z,6.83
2023-01-21T22:31:29.597Z,6.37
2023-01-21T22:33:58.317Z,5.23
2023-01-21T22:36:29.642Z,5.83
2023-01-21T22:38:57.258Z,5.13
2023-01-21T22:41:25.796Z,4.13
2023-01-21T22:43:53.978Z,7.40
2023-01-21T22:46:30.248Z,7.63
2023-01-21T22:48:58.505Z,4.67
2023-01-21T22:51:26.674Z,7.17
2023-01-21T22:53:54.737Z,5.10
2023-01-21T22:56:39.837Z,5.03
2023-01-21T22:59:12.595Z,5.73
2023-01-21T23:01:40.262Z,6.70
2023-01-21T23:04:08.747Z,5.43
2023-01-21T23:06:37.821Z,10.67
2023-01-21T23:09:08.186Z,6.13
2023-01-21T23:11:38.711Z,5.70
2023-01-21T23:14:08.485Z,5.47
2023-01-21T23:16:37.334Z,6.07
2023-01-21T23:19:04.919Z,5.70
2023-01-21T23:21:32.349Z,5.03
2023-01-21T23:23:59.713Z,4.67
2023-01-21T23:26:27.033Z,5.47
2023-01-21T23:28:56.186Z,8.40
2023-01-21T23:31:24.250Z,6.90
2023-01-21T23:33:54.090Z,6.67
2023-01-21T23:36:21.795Z,6.80
2023-01-21T23:38:49.257Z,5.20
2023-01-21T23:41:17.216Z,5.97
2023-01-21T23:43:44.854Z,4.27
2023-01-21T23:46:19.586Z,5.70
2023-01-21T23:48:47.663Z,4.90
2023-01-21T23:51:16.983Z,6.70
2023-01-21T23:53:45.969Z,7.70
2023-01-21T23:56:16.896Z,5.83
2023-01-21T23:58:44.282Z,3.40
